Time;durP1;ratioP1;P1;durP2;ratioP2;P2;SDS_P1;SDS_P2;PMS_P1;PMS_P2;Temp;Humidity;BMP_temperature;BMP_pressure;BME280_temperature;BME280_humidity;BME280_pressure;Samples;Min_cycle;Max_cycle;Signal;HPM_P1;HPM_P2
2021/05/03 00:01:41;;;;;;;8.38;3.70;;;6.80;74.90;;;6.75;62.57;101048.97;5008416;28;20076;-78
2021/05/03 00:04:19;;;;;;;7.28;3.72;;;6.80;75.30;;;6.72;62.59;101046.53;5008624;28;20453;-78
2021/05/03 00:06:58;;;;;;;9.68;4.53;;;6.80;75.40;;;6.70;62.76;101049.41;5008589;28;20096;-78
2021/05/03 00:09:36;;;;;;;6.93;3.80;;;6.70;75.60;;;6.72;62.52;101041.13;5008382;28;20045;-78
2021/05/03 00:12:13;;;;;;;8.25;4.20;;;6.70;75.60;;;6.68;62.33;101039.72;5008207;28;20046;-78
2021/05/03 00:14:49;;;;;;;6.93;4.00;;;6.70;75.60;;;6.64;62.59;101041.88;5008533;28;20042;-78
2021/05/03 00:17:25;;;;;;;7.68;4.13;;;6.60;75.60;;;6.64;62.59;101045.44;5005258;28;20537;-78
2021/05/03 00:20:03;;;;;;;7.63;3.90;;;6.60;75.90;;;6.61;62.65;101037.59;5008312;28;20041;-78
2021/05/03 00:22:38;;;;;;;7.95;4.38;;;6.60;76.00;;;6.60;62.66;101037.75;5008236;28;20056;-78
2021/05/03 00:25:16;;;;;;;11.07;4.47;;;6.50;76.10;;;6.56;62.61;101037.19;4990388;28;20058;-78
2021/05/03 00:27:55;;;;;;;8.27;4.05;;;6.50;76.10;;;6.56;62.86;101039.03;5008257;28;20050;-78
2021/05/03 00:30:30;;;;;;;8.77;4.25;;;6.50;76.30;;;6.49;62.74;101041.47;5008251;28;20465;-78
2021/05/03 00:33:06;;;;;;;9.25;4.20;;;6.40;76.20;;;6.46;62.80;101042.63;5008122;28;20410;-78
2021/05/03 00:35:41;;;;;;;7.80;4.32;;;6.40;76.30;;;6.46;62.67;101037.22;5008135;28;20581;-78
2021/05/03 00:38:19;;;;;;;7.75;4.38;;;6.40;76.40;;;6.41;62.79;101038.63;5008191;28;20049;-78
2021/05/03 00:40:57;;;;;;;8.65;4.32;;;6.40;76.40;;;6.43;62.46;101031.22;5008058;28;20053;-78
2021/05/03 00:43:33;;;;;;;11.38;4.65;;;6.30;76.50;;;6.38;62.97;101034.38;5007944;28;20506;-78
2021/05/03 00:46:09;;;;;;;8.32;4.90;;;6.30;76.50;;;6.35;62.72;101028.41;5006677;28;20059;-78
2021/05/03 00:48:47;;;;;;;8.48;5.07;;;6.30;76.60;;;6.30;63.25;101030.69;5008161;28;20490;-78
2021/05/03 00:51:25;;;;;;;9.15;4.70;;;6.30;76.70;;;6.31;63.00;101032.41;5008114;28;20050;-78
2021/05/03 00:54:03;;;;;;;7.47;4.97;;;6.20;76.70;;;6.28;63.08;101028.13;5008049;28;20127;-78
2021/05/03 00:56:41;;;;;;;9.10;4.63;;;6.20;76.70;;;6.20;63.03;101031.53;5008163;28;20749;-78
2021/05/03 00:59:24;;;;;;;8.50;4.93;;;6.10;76.50;;;6.19;62.97;101035.25;5008414;28;20093;-78
2021/05/03 01:02:02;;;;;;;9.02;4.40;;;6.10;76.80;;;6.15;63.25;101027.56;5011336;28;20750;-78
2021/05/03 01:04:41;;;;;;;10.82;5.10;;;6.10;76.60;;;6.18;62.97;101027.28;5011556;28;20125;-78
2021/05/03 01:07:22;;;;;;;9.75;4.57;;;6.10;76.60;;;6.14;63.22;101037.53;5011443;28;20050;-78
2021/05/03 01:09:57;;;;;;;7.63;4.20;;;6.00;76.60;;;6.12;62.73;101035.97;5011264;28;20057;-78
2021/05/03 01:12:37;;;;;;;9.07;4.85;;;6.00;76.60;;;6.08;63.12;101038.09;5011127;28;20056;-78
2021/05/03 01:15:22;;;;;;;10.93;4.90;;;6.00;76.70;;;6.07;63.36;101036.38;5011226;28;20062;-78
2021/05/03 01:18:00;;;;;;;11.15;5.15;;;6.00;76.90;;;6.01;63.63;101039.66;5011270;28;20041;-78
2021/05/03 01:20:40;;;;;;;8.88;4.90;;;6.00;77.10;;;6.00;63.13;101040.69;5011089;28;20045;-78
2021/05/03 01:23:19;;;;;;;12.38;4.90;;;5.90;77.10;;;5.98;63.40;101035.41;5010827;28;20042;-78
2021/05/03 01:25:57;;;;;;;10.10;5.13;;;5.90;77.20;;;5.98;63.30;101040.81;5010960;28;20042;-79
2021/05/03 01:28:33;;;;;;;9.63;5.18;;;5.90;77.50;;;5.96;63.72;101039.22;5010953;28;20053;-78
2021/05/03 01:31:11;;;;;;;10.35;5.45;;;5.80;77.50;;;5.93;63.63;101037.63;4993143;28;20116;-78
2021/05/03 01:33:48;;;;;;;9.20;4.70;;;5.80;77.50;;;5.93;63.89;101053.00;5010754;28;20052;-78
2021/05/03 01:36:26;;;;;;;11.70;5.35;;;5.80;77.70;;;5.94;63.32;101047.47;5010961;28;20292;-78
2021/05/03 01:39:07;;;;;;;9.82;5.20;;;5.80;77.90;;;5.88;63.64;101048.88;5010750;28;20395;-78
2021/05/03 01:41:48;;;;;;;9.35;4.97;;;5.70;77.80;;;5.85;63.96;101054.56;5010815;28;20038;-78
2021/05/03 01:44:26;;;;;;;12.70;5.80;;;5.80;78.00;;;5.83;63.69;101051.13;5010900;28;20057;-78
2021/05/03 01:47:04;;;;;;;12.77;5.15;;;5.70;78.10;;;5.79;64.16;101049.72;5010850;28;20088;-78
2021/05/03 01:49:40;;;;;;;9.55;5.22;;;5.70;78.10;;;5.78;64.36;101048.00;5010433;28;20046;-77
2021/05/03 01:52:19;;;;;;;9.00;5.50;;;5.70;78.20;;;5.77;64.28;101042.72;5010458;28;20050;-78
2021/05/03 01:54:56;;;;;;;10.90;5.78;;;5.70;78.20;;;5.84;64.12;101052.84;5010431;28;20514;-78
2021/05/03 01:57:30;;;;;;;10.23;5.43;;;5.70;78.50;;;5.84;63.96;101060.94;5010626;28;20073;-78
2021/05/03 02:00:10;;;;;;;8.82;5.38;;;5.70;78.70;;;5.82;64.29;101065.63;5010210;28;20510;-78
2021/05/03 02:02:51;;;;;;;10.35;5.65;;;5.60;78.70;;;5.82;64.20;101062.91;5010168;28;20038;-78
2021/05/03 02:05:33;;;;;;;12.30;5.80;;;5.60;78.70;;;5.78;64.28;101064.19;5008869;28;20057;-78
2021/05/03 02:08:09;;;;;;;10.38;5.15;;;5.60;78.70;;;5.77;64.39;101067.03;5010213;28;20127;-78
2021/05/03 02:10:49;;;;;;;10.20;5.25;;;5.60;78.60;;;5.73;64.33;101065.63;5006874;28;20064;-78
2021/05/03 02:13:26;;;;;;;9.38;5.40;;;5.60;78.90;;;5.71;64.62;101067.59;5009979;28;20506;-78
2021/05/03 02:16:04;;;;;;;8.55;5.03;;;5.60;78.90;;;5.70;64.51;101066.75;5010138;28;20668;-77
2021/05/03 02:18:40;;;;;;;10.80;5.05;;;5.60;78.90;;;5.73;64.35;101069.19;5010153;28;20505;-77
2021/05/03 02:21:17;;;;;;;9.82;5.45;;;5.60;79.00;;;5.72;64.49;101070.16;5010072;28;20042;-76
2021/05/03 02:23:55;;;;;;;12.25;5.70;;;5.50;79.20;;;5.66;64.59;101068.88;5009797;28;20074;-77
2021/05/03 02:26:34;;;;;;;9.00;5.32;;;5.60;79.00;;;5.66;64.47;101065.34;5009970;28;20052;-77
2021/05/03 02:29:12;;;;;;;11.20;5.70;;;5.50;79.10;;;5.67;64.75;101064.31;5009722;28;20107;-77
2021/05/03 02:31:47;;;;;;;9.82;5.63;;;5.50;79.20;;;5.64;65.04;101056.53;5009507;28;20135;-77
2021/05/03 02:34:23;;;;;;;11.68;5.53;;;5.50;79.00;;;5.66;64.55;101054.53;4992117;28;20131;-77
2021/05/03 02:37:00;;;;;;;9.98;5.20;;;5.50;79.20;;;5.69;64.73;101054.22;5009899;28;20619;-77
2021/05/03 02:39:42;;;;;;;11.25;5.47;;;5.60;79.40;;;5.63;64.91;101049.41;5009310;28;20049;-77
2021/05/03 02:42:18;;;;;;;10.38;5.40;;;5.50;79.30;;;5.59;64.91;101051.53;5009466;28;20469;-77
2021/05/03 02:44:56;;;;;;;9.90;5.95;;;5.50;79.30;;;5.58;64.89;101047.13;4991627;28;20421;-77
2021/05/03 02:47:34;;;;;;;10.55;5.55;;;5.50;79.30;;;5.62;64.75;101045.84;5009703;28;20073;-77
2021/05/03 02:50:11;;;;;;;8.13;5.20;;;5.50;79.30;;;5.63;64.79;101052.09;5009368;28;20418;-77
2021/05/03 02:52:49;;;;;;;11.57;5.35;;;5.50;79.30;;;5.57;65.03;101045.41;5009304;28;20057;-77
2021/05/03 02:55:27;;;;;;;11.68;5.32;;;5.50;79.40;;;5.57;64.80;101055.38;5009442;28;20061;-77
2021/05/03 02:58:07;;;;;;;9.70;5.45;;;5.40;79.40;;;5.57;65.18;101048.09;5009399;28;20053;-77
2021/05/03 03:00:45;;;;;;;9.85;5.75;;;5.40;79.60;;;5.55;65.07;101050.09;5009436;28;20046;-77
2021/05/03 03:03:23;;;;;;;13.48;5.80;;;5.40;79.60;;;5.53;65.06;101048.53;5009112;28;20096;-78
2021/05/03 03:06:01;;;;;;;12.32;5.93;;;5.40;79.60;;;5.51;65.20;101061.31;5009261;28;20057;-77
2021/05/03 03:08:36;;;;;;;11.90;5.45;;;5.40;80.00;;;5.53;65.61;101060.19;5009156;28;20041;-77
2021/05/03 03:11:11;;;;;;;10.63;5.90;;;5.40;80.00;;;5.53;65.53;101054.78;5009184;28;20042;-77
2021/05/03 03:13:54;;;;;;;9.90;5.55;;;5.40;80.00;;;5.51;65.60;101058.63;5008881;28;20521;-77
2021/05/03 03:16:29;;;;;;;9.68;6.03;;;5.40;79.90;;;5.47;65.37;101056.19;5009130;28;20049;-77
2021/05/03 03:19:08;;;;;;;9.02;5.95;;;5.40;80.00;;;5.46;65.72;101059.91;5009002;28;20042;-77
2021/05/03 03:21:40;;;;;;;10.95;6.40;;;5.40;80.00;;;5.45;65.86;101058.16;5008832;28;20053;-77
2021/05/03 03:24:16;;;;;;;11.82;5.70;;;5.40;80.00;;;5.47;66.12;101061.59;5008765;28;20050;-77
2021/05/03 03:26:54;;;;;;;11.85;6.07;;;5.40;80.00;;;5.49;65.82;101051.50;5009232;28;20038;-77
2021/05/03 03:29:30;;;;;;;10.80;6.22;;;5.40;80.10;;;5.51;65.69;101050.53;5008783;28;20049;-77
2021/05/03 03:32:03;;;;;;;9.15;5.32;;;5.50;80.10;;;5.54;65.71;101050.22;5008803;28;20069;-77
2021/05/03 03:34:38;;;;;;;11.10;6.32;;;5.40;80.20;;;5.52;65.73;101060.31;5008879;28;20120;-77
2021/05/03 03:37:16;;;;;;;10.90;6.28;;;5.40;80.20;;;5.49;65.83;101048.81;5008992;28;20050;-77
2021/05/03 03:39:54;;;;;;;11.68;6.53;;;5.40;80.30;;;5.47;65.57;101056.19;5008693;28;20041;-78
2021/05/03 03:42:29;;;;;;;11.88;6.07;;;5.40;80.30;;;5.44;66.09;101051.06;5008758;28;20056;-77
2021/05/03 03:45:09;;;;;;;14.85;5.90;;;5.40;80.30;;;5.47;65.82;101048.09;5008842;28;20053;-77
2021/05/03 03:47:48;;;;;;;11.27;6.70;;;5.40;80.40;;;5.49;65.86;101045.25;5008977;28;20045;-77
2021/05/03 03:50:25;;;;;;;10.05;6.28;;;5.40;80.50;;;5.47;66.29;101047.25;5008631;28;20042;-77
2021/05/03 03:53:04;;;;;;;11.55;6.68;;;5.40;80.40;;;5.45;65.55;101041.13;5008616;28;20049;-77
2021/05/03 03:55:42;;;;;;;10.15;6.20;;;5.30;80.20;;;5.44;65.45;101040.25;5008721;28;20532;-77
2021/05/03 03:58:20;;;;;;;11.23;6.22;;;5.40;80.00;;;5.42;65.53;101046.78;5008279;28;20057;-77
2021/05/03 04:01:03;;;;;;;9.30;5.90;;;5.40;79.80;;;5.37;65.10;101047.22;4990975;28;20457;-77
2021/05/03 04:03:47;;;;;;;10.30;5.85;;;5.40;79.60;;;5.38;65.24;101048.91;5008334;28;20064;-77
2021/05/03 04:06:36;;;;;;;10.82;6.03;;;5.30;79.60;;;5.35;65.42;101041.13;5008831;28;20041;-77
2021/05/03 04:09:23;;;;;;;10.75;6.43;;;5.30;79.60;;;5.31;65.27;101050.44;5008324;28;20057;-77
2021/05/03 04:23:49;;;;;;;10.48;6.30;;;5.20;80.10;;;5.25;65.90;101038.38;5008313;28;20042;-77
2021/05/03 04:26:29;;;;;;;13.85;6.80;;;5.20;80.20;;;5.26;65.83;101044.63;5008411;28;20050;-78
2021/05/03 04:29:04;;;;;;;11.95;6.65;;;5.20;80.30;;;5.27;65.76;101040.91;5008483;28;20073;-77
2021/05/03 04:31:42;;;;;;;10.63;6.07;;;5.20;80.30;;;5.24;65.72;101042.06;5008299;28;20557;-78
2021/05/03 04:34:21;;;;;;;10.43;6.07;;;5.20;80.30;;;5.23;65.82;101037.63;5008723;28;20068;-78
2021/05/03 04:36:59;;;;;;;10.43;6.15;;;5.20;80.40;;;5.28;65.87;101042.66;5012131;28;20050;-76
2021/05/03 04:39:34;;;;;;;10.13;6.55;;;5.10;80.70;;;5.33;65.93;101047.63;5012139;28;20084;-77
2021/05/03 04:42:13;;;;;;;11.15;6.50;;;5.20;80.90;;;5.41;65.99;101043.25;5011708;28;20445;-77
2021/05/03 04:44:51;;;;;;;10.88;6.47;;;5.20;81.10;;;5.46;66.28;101032.91;5012029;28;20041;-77
2021/05/03 04:47:26;;;;;;;11.23;6.88;;;5.20;81.40;;;5.49;66.63;101048.81;4994052;28;20429;-78
2021/05/03 04:50:06;;;;;;;12.30;6.97;;;5.30;81.80;;;5.51;66.70;101047.81;5011861;28;20053;-77
2021/05/03 04:52:42;;;;;;;13.30;7.85;;;5.30;81.90;;;5.63;66.79;101044.84;5011542;28;20049;-77
2021/05/03 04:55:20;;;;;;;11.80;7.47;;;5.40;82.10;;;5.68;66.75;101048.00;5011680;28;20046;-78
2021/05/03 04:57:58;;;;;;;12.07;7.88;;;5.40;82.20;;;5.73;66.80;101057.50;5011542;28;20050;-78
2021/05/03 05:00:36;;;;;;;14.93;8.35;;;5.50;82.30;;;5.77;66.97;101045.44;5011546;28;20041;-78
2021/05/03 05:03:14;;;;;;;14.05;8.80;;;5.60;82.20;;;5.83;67.12;101051.13;5011137;28;20061;-77
2021/05/03 05:05:52;;;;;;;15.45;9.05;;;5.70;82.30;;;5.85;67.44;101046.44;5011459;28;20045;-77
2021/05/03 05:08:27;;;;;;;18.65;11.02;;;5.80;82.40;;;5.95;67.20;101045.59;5011274;28;20100;-77
2021/05/03 05:11:05;;;;;;;15.90;9.95;;;5.80;82.30;;;6.01;67.45;101036.97;5011308;28;20044;-77
2021/05/03 05:13:43;;;;;;;19.02;7.72;;;5.90;82.20;;;6.03;67.47;101035.81;4993198;28;20069;-78
2021/05/03 05:16:21;;;;;;;16.35;8.00;;;6.00;82.20;;;6.11;67.25;101037.84;5011214;28;20049;-77
2021/05/03 05:18:59;;;;;;;16.02;8.18;;;6.10;82.00;;;6.17;67.75;101031.84;5011216;28;20042;-77
2021/05/03 05:21:44;;;;;;;13.02;7.88;;;6.20;82.00;;;6.27;67.66;101026.44;4993236;28;20662;-77
2021/05/03 05:24:22;;;;;;;11.18;7.50;;;6.30;81.90;;;6.30;67.50;101031.53;5011047;28;20046;-77
2021/05/03 05:27:02;;;;;;;11.60;7.10;;;6.40;81.50;;;6.35;67.70;101033.81;5011368;28;20060;-77
2021/05/03 05:29:41;;;;;;;11.48;7.20;;;6.60;81.20;;;6.49;67.26;101029.81;5011194;28;20034;-76
2021/05/03 05:32:19;;;;;;;14.45;7.55;;;6.70;81.00;;;6.54;67.84;101025.66;4995542;28;20053;-76
2021/05/03 05:34:59;;;;;;;14.38;7.57;;;6.80;80.60;;;6.65;67.56;101030.91;5000305;28;20060;-77
2021/05/03 05:37:32;;;;;;;17.00;7.60;;;7.00;80.40;;;6.76;66.58;101026.31;5010849;28;20054;-76
2021/05/03 05:40:11;;;;;;;12.65;7.53;;;7.10;79.60;;;6.87;67.01;101026.13;5004382;28;20038;-77
2021/05/03 05:42:52;;;;;;;14.85;7.75;;;7.20;79.20;;;6.95;66.04;101031.69;4973157;28;20046;-77
2021/05/03 05:45:30;;;;;;;12.55;7.03;;;7.40;78.90;;;7.00;66.32;101040.19;4990745;28;20046;-77
2021/05/03 05:48:09;;;;;;;15.68;7.30;;;7.50;78.70;;;7.09;66.57;101043.00;4991287;28;20061;-76
2021/05/03 05:50:44;;;;;;;12.05;7.75;;;7.50;78.60;;;7.14;66.46;101038.00;4990968;28;20391;-77
2021/05/03 05:53:23;;;;;;;17.05;7.75;;;7.60;78.40;;;7.22;65.91;101043.53;5003146;28;20081;-77
2021/05/03 05:56:01;;;;;;;13.32;7.47;;;7.70;78.00;;;7.31;65.97;101031.81;4991004;28;20054;-77
2021/05/03 05:58:39;;;;;;;16.45;8.18;;;7.90;77.70;;;7.41;65.87;101026.31;4973348;28;20519;-77
2021/05/03 06:01:17;;;;;;;17.48;7.50;;;8.00;77.30;;;7.50;65.26;101027.25;4990231;28;20054;-77
2021/05/03 06:03:55;;;;;;;15.98;8.00;;;8.10;76.80;;;7.56;65.43;101034.78;4989365;28;20050;-76
2021/05/03 06:06:34;;;;;;;14.57;7.05;;;8.30;76.40;;;7.60;65.07;101037.03;4991258;28;20334;-76
2021/05/03 06:09:13;;;;;;;15.65;7.43;;;8.40;75.70;;;7.66;64.93;101034.72;4999081;28;20096;-77
2021/05/03 06:11:51;;;;;;;13.10;7.18;;;8.50;75.30;;;7.73;65.39;101033.09;4998566;28;20073;-77
2021/05/03 06:14:27;;;;;;;11.93;7.00;;;8.70;74.80;;;7.82;65.01;101040.31;4987566;28;20046;-77
2021/05/03 06:17:05;;;;;;;12.35;7.18;;;8.80;74.10;;;7.92;64.98;101040.22;4980154;28;20473;-77
2021/05/03 06:19:38;;;;;;;12.27;6.43;;;9.00;74.00;;;8.00;64.94;101034.91;5001913;28;20041;-78
2021/05/03 06:22:15;;;;;;;13.88;7.05;;;9.20;73.50;;;8.08;65.00;101040.41;5009417;28;20464;-77
2021/05/03 06:24:55;;;;;;;12.43;7.10;;;9.30;73.10;;;8.12;64.59;101035.50;4997123;28;20516;-77
2021/05/03 06:27:30;;;;;;;11.63;7.05;;;9.30;72.60;;;8.17;63.95;101028.63;5006996;28;20046;-77
2021/05/03 06:30:07;;;;;;;11.35;6.90;;;9.40;72.10;;;8.21;64.12;101023.75;4990338;28;20042;-78
2021/05/03 06:32:45;;;;;;;12.27;7.10;;;9.40;72.00;;;8.27;63.86;101033.09;4989931;28;20070;-77
2021/05/03 06:35:23;;;;;;;14.60;7.47;;;9.40;72.00;;;8.30;63.34;101038.19;4990318;28;20055;-77
2021/05/03 06:38:00;;;;;;;15.38;6.97;;;9.50;72.00;;;8.30;63.43;101032.78;4989953;28;20057;-77
2021/05/03 06:40:43;;;;;;;13.77;7.45;;;9.50;72.00;;;8.31;63.98;101035.34;4990297;28;20155;-74
2021/05/03 06:43:18;;;;;;;12.55;6.70;;;9.50;71.60;;;8.33;64.16;101033.31;4989907;28;20042;-74
2021/05/03 06:45:58;;;;;;;11.45;7.30;;;9.50;71.90;;;8.38;63.62;101030.16;4989962;28;20586;-75
2021/05/03 06:48:37;;;;;;;10.07;6.78;;;9.50;72.10;;;8.43;63.67;101035.97;4990062;28;20053;-75
2021/05/03 06:51:14;;;;;;;12.13;6.25;;;9.50;72.00;;;8.50;63.77;101031.63;4989724;28;20058;-74
2021/05/03 06:53:50;;;;;;;11.20;6.68;;;9.50;72.60;;;8.50;63.71;101028.06;4988237;28;20050;-74
2021/05/03 06:56:28;;;;;;;11.95;6.82;;;9.60;72.30;;;8.54;63.91;101029.44;4989704;28;20046;-74
2021/05/03 06:59:07;;;;;;;12.90;6.07;;;9.60;72.30;;;8.56;63.71;101027.41;5004106;28;20042;-75
2021/05/03 07:01:47;;;;;;;11.45;6.28;;;9.60;72.10;;;8.61;63.75;101025.94;4996417;28;20632;-77
2021/05/03 07:04:25;;;;;;;11.88;6.80;;;9.60;72.30;;;8.65;62.74;101020.19;5009211;28;20045;-78
2021/05/03 07:07:03;;;;;;;17.45;6.93;;;9.60;71.60;;;8.69;63.02;101021.56;5009317;28;20049;-77
2021/05/03 07:09:46;;;;;;;11.40;6.65;;;9.80;71.90;;;8.72;62.51;101021.22;5007507;28;20046;-77
2021/05/03 07:12:26;;;;;;;10.98;6.22;;;9.70;71.50;;;8.77;63.06;101029.75;5008967;28;20048;-77
2021/05/03 07:15:04;;;;;;;10.50;6.65;;;9.70;71.80;;;8.79;63.21;101023.16;5008988;28;20183;-77
2021/05/03 07:17:42;;;;;;;10.93;6.38;;;9.80;72.00;;;8.86;62.55;101020.66;4990177;28;20042;-77
2021/05/03 07:20:22;;;;;;;10.07;5.47;;;9.90;71.40;;;8.93;62.04;101023.56;4989598;28;20510;-77
2021/05/03 07:22:57;;;;;;;12.30;6.22;;;9.90;70.30;;;8.96;62.38;101017.81;4988939;28;20133;-77
2021/05/03 07:25:35;;;;;;;11.48;6.18;;;10.00;70.30;;;9.05;61.81;101029.59;4989600;28;20059;-77
2021/05/03 07:28:19;;;;;;;10.13;5.72;;;10.10;70.10;;;9.10;61.13;101027.22;4971427;28;20058;-77
2021/05/03 07:30:58;;;;;;;11.73;5.82;;;10.10;69.90;;;9.12;61.17;101020.63;4989410;28;20078;-77
2021/05/03 07:33:39;;;;;;;8.38;5.50;;;10.20;69.20;;;9.18;60.40;101027.28;4989162;28;20042;-77
2021/05/03 07:36:17;;;;;;;9.65;5.43;;;10.30;68.70;;;9.21;60.38;101024.22;4971683;28;20081;-77
2021/05/03 07:38:55;;;;;;;12.52;5.55;;;10.40;68.60;;;9.27;59.76;101020.00;4989118;28;20049;-77
2021/05/03 07:41:32;;;;;;;9.65;5.63;;;10.50;67.80;;;9.33;59.86;101020.19;4989221;28;20097;-77
2021/05/03 07:44:11;;;;;;;15.45;6.18;;;10.50;67.80;;;9.41;59.47;101013.09;4989168;28;20054;-77
2021/05/03 07:46:50;;;;;;;11.60;5.63;;;10.60;67.30;;;9.48;59.84;101016.84;4988945;28;20057;-77
2021/05/03 07:49:28;;;;;;;10.15;6.03;;;10.70;67.10;;;9.56;59.96;101011.44;4989126;28;20119;-76
2021/05/03 07:52:04;;;;;;;9.82;5.10;;;10.80;67.60;;;9.60;58.67;101012.81;4988574;28;20246;-75
2021/05/03 07:54:42;;;;;;;9.18;5.45;;;10.90;65.90;;;9.67;57.13;101011.13;4989225;28;20046;-74
2021/05/03 07:57:17;;;;;;;11.18;5.32;;;11.00;64.80;;;9.72;58.10;101014.19;4989288;28;20046;-75
2021/05/03 07:59:56;;;;;;;9.20;5.13;;;11.00;64.30;;;9.83;58.49;101009.47;4988889;28;20061;-75
2021/05/03 08:02:35;;;;;;;11.18;4.82;;;11.10;64.60;;;9.91;57.80;101001.31;4984077;28;20058;-77
2021/05/03 08:05:14;;;;;;;10.00;5.32;;;11.20;64.30;;;9.97;56.57;101003.34;5008643;28;20038;-77
2021/05/03 08:07:49;;;;;;;8.88;4.93;;;11.30;63.50;;;10.03;56.39;101008.09;5008576;28;20045;-77
2021/05/03 08:10:27;;;;;;;9.27;4.50;;;11.40;63.40;;;10.05;55.00;100992.50;5012464;28;20041;-77
2021/05/03 08:13:03;;;;;;;7.90;4.00;;;11.40;62.40;;;10.12;55.92;100996.22;5012031;28;20628;-78
2021/05/03 08:15:46;;;;;;;9.05;4.30;;;11.50;62.00;;;10.23;56.81;100988.75;5012306;28;20050;-77
2021/05/03 08:18:24;;;;;;;6.97;3.95;;;11.60;62.60;;;10.33;56.32;100989.44;5012327;28;20041;-77
2021/05/03 08:21:03;;;;;;;9.57;4.22;;;11.70;62.60;;;10.39;54.34;100991.47;5010837;28;20125;-78
2021/05/03 08:23:40;;;;;;;9.48;4.72;;;11.80;60.70;;;10.40;54.94;100995.91;5011702;28;20498;-77
2021/05/03 08:26:18;;;;;;;11.18;4.78;;;11.80;59.60;;;10.46;55.80;100989.78;5012199;28;20049;-78
2021/05/03 08:28:53;;;;;;;7.85;4.63;;;11.90;61.50;;;10.52;55.42;100989.06;5011974;28;20490;-78
2021/05/03 08:31:36;;;;;;;9.32;4.75;;;12.00;60.80;;;10.63;53.47;100978.88;5009149;28;20046;-77
2021/05/03 08:34:12;;;;;;;9.65;4.22;;;12.00;58.80;;;10.67;52.71;100980.22;5001339;28;20061;-77
2021/05/03 08:36:49;;;;;;;8.88;4.18;;;12.10;58.20;;;10.78;54.39;100977.13;5011744;28;20042;-77
2021/05/03 08:39:22;;;;;;;8.52;4.63;;;12.20;59.50;;;10.82;52.57;100977.63;4975725;28;20525;-77
2021/05/03 08:42:00;;;;;;;10.25;4.53;;;12.30;58.40;;;10.84;54.59;100979.16;4991878;28;20046;-78
2021/05/03 08:44:42;;;;;;;10.52;4.20;;;12.30;59.10;;;10.89;52.96;100975.88;4992350;28;20141;-75
2021/05/03 08:47:33;;;;;;;7.43;4.43;;;12.40;58.60;;;10.91;52.91;100971.97;4992276;28;20403;-75
2021/05/03 08:50:21;;;;;;;10.32;4.80;;;12.50;58.60;;;10.97;53.04;100973.16;4981035;28;20449;-77
2021/05/03 08:52:59;;;;;;;11.13;5.25;;;12.50;58.10;;;11.02;53.02;100975.34;4993448;28;20094;-77
2021/05/03 08:55:37;;;;;;;13.07;5.40;;;12.60;57.90;;;11.02;51.72;100973.44;5011633;28;20609;-77
2021/05/03 08:58:16;;;;;;;12.98;5.30;;;12.60;56.90;;;11.03;53.22;100968.88;4993469;28;20053;-77
2021/05/03 09:00:55;;;;;;;9.65;5.20;;;12.60;57.60;;;11.03;52.04;100974.31;5011072;28;20046;-77
2021/05/03 09:03:36;;;;;;;10.57;5.30;;;12.60;57.00;;;11.06;51.22;100971.22;5009768;28;20050;-78
2021/05/03 09:06:13;;;;;;;12.50;5.30;;;12.60;56.20;;;11.12;52.53;100962.38;5011711;28;20498;-77
2021/05/03 09:09:02;;;;;;;10.70;5.63;;;12.60;57.20;;;11.18;50.40;100950.75;5011335;28;20050;-77
2021/05/03 09:12:00;;;;;;;16.45;5.47;;;12.70;55.20;;;11.27;54.63;100949.69;5011335;28;20057;-78
2021/05/03 09:14:48;;;;;;;15.60;5.43;;;12.70;58.50;;;11.30;51.90;100943.88;5011397;28;20046;-77
2021/05/03 09:17:37;;;;;;;9.02;4.97;;;12.80;56.30;;;11.37;53.35;100941.28;5011229;28;20049;-77
2021/05/03 09:20:20;;;;;;;13.25;5.10;;;12.90;57.70;;;11.37;53.11;100938.56;4998003;28;20039;-77
2021/05/03 09:23:03;;;;;;;9.02;4.90;;;12.90;56.80;;;11.50;51.84;100937.97;4989991;28;20495;-77
2021/05/03 09:25:42;;;;;;;14.40;5.53;;;13.00;56.70;;;11.60;50.25;100927.69;4996509;28;20117;-77
2021/05/03 09:28:29;;;;;;;10.65;5.63;;;13.00;55.10;;;11.73;52.88;100924.34;4995870;28;20050;-77
2021/05/03 09:31:11;;;;;;;17.70;5.85;;;13.20;57.90;;;11.70;52.34;100917.38;4995925;28;20046;-77
2021/05/03 09:33:50;;;;;;;18.15;5.32;;;13.20;56.10;;;11.81;52.79;100920.72;5010480;28;20053;-77
2021/05/03 09:36:36;;;;;;;18.27;4.88;;;13.30;57.10;;;11.76;50.00;100912.22;4999631;28;20042;-77
2021/05/03 09:39:14;;;;;;;11.50;5.07;;;13.30;53.80;;;11.89;52.41;100910.59;5001699;28;20116;-77
2021/05/03 09:41:57;;;;;;;7.32;4.47;;;13.40;56.50;;;12.01;50.40;100912.88;5010659;28;20041;-78
2021/05/03 09:44:35;;;;;;;7.55;4.40;;;13.50;54.40;;;12.03;49.52;100917.16;4991149;28;20499;-78
2021/05/03 09:47:07;;;;;;;8.48;5.22;;;13.50;54.10;;;12.03;48.25;100905.38;4991441;28;20058;-77
2021/05/03 09:49:46;;;;;;;8.35;5.20;;;13.60;54.10;;;12.05;48.36;100909.63;4973209;28;20101;-78
2021/05/03 09:52:24;;;;;;;10.15;4.93;;;13.60;53.60;;;12.04;49.65;100902.47;4990678;28;20039;-77
2021/05/03 09:55:02;;;;;;;8.20;4.70;;;13.70;53.90;;;12.10;48.58;100906.31;4998180;28;20052;-77
2021/05/03 09:57:40;;;;;;;10.80;5.55;;;13.70;53.10;;;12.18;47.43;100892.59;5010499;28;20073;-77
2021/05/03 10:00:36;;;;;;;9.18;5.28;;;13.70;51.90;;;12.21;48.72;100891.41;5010560;28;20049;-77
2021/05/03 10:03:39;;;;;;;7.50;4.72;;;13.80;52.30;;;12.26;49.62;100897.13;5009798;28;20077;-77
2021/05/03 10:06:16;;;;;;;10.70;5.00;;;13.80;54.10;;;12.29;47.45;100883.13;5010014;28;20465;-81
2021/05/03 10:08:55;;;;;;;11.93;5.10;;;13.90;52.60;;;12.30;47.52;100885.66;5009937;28;20045;-76
2021/05/03 10:11:39;;;;;;;9.65;5.53;;;13.90;53.40;;;12.25;48.00;100881.81;5010330;28;20057;-76
2021/05/03 10:14:17;;;;;;;9.25;4.97;;;13.90;52.50;;;12.33;49.25;100878.97;5002218;28;20053;-76
2021/05/03 10:16:56;;;;;;;8.43;5.45;;;13.90;54.00;;;12.38;46.27;100872.97;4980120;28;20510;-77
2021/05/03 10:19:36;;;;;;;7.75;4.90;;;14.00;51.30;;;12.27;46.23;100877.00;5002294;28;20045;-77
2021/05/03 10:22:19;;;;;;;10.30;5.13;;;13.90;51.40;;;12.27;46.17;100866.09;4972840;28;20399;-77
2021/05/03 10:25:09;;;;;;;11.40;4.97;;;13.90;50.80;;;12.37;48.83;100868.53;4999435;28;20054;-77
2021/05/03 10:27:50;;;;;;;10.63;5.03;;;13.90;53.30;;;12.44;45.19;100862.13;4990132;28;20050;-76
2021/05/03 10:30:28;;;;;;;;;;;14.00;50.40;;;12.42;47.38;100855.19;4992963;28;20069;-77
2021/05/03 10:33:06;;;;;;;11.23;4.97;;;14.00;51.20;;;12.41;46.27;100859.78;4989727;28;19941;-78
2021/05/03 10:35:49;;;;;;;8.82;5.15;;;14.00;50.60;;;12.50;45.85;100853.19;4990231;28;20046;-77
2021/05/03 10:38:45;;;;;;;10.43;5.60;;;14.00;51.00;;;12.64;48.92;100850.63;4993241;28;20568;-77
2021/05/03 10:41:41;;;;;;;8.88;5.30;;;14.20;52.90;;;12.67;47.04;100837.44;5009675;28;20494;-77
2021/05/03 10:44:22;;;;;;;11.10;5.38;;;14.20;52.00;;;12.78;45.80;100836.13;5009487;28;20050;-77
2021/05/03 10:47:04;;;;;;;7.88;5.25;;;14.30;51.50;;;12.75;46.63;100839.22;5009183;28;20053;-82
2021/05/03 10:49:46;;;;;;;11.73;5.40;;;14.60;49.70;;;12.72;45.77;100834.16;5011755;28;20042;-78
2021/05/03 10:52:38;;;;;;;12.20;5.80;;;14.30;50.00;;;12.66;46.08;100824.84;5011834;28;20057;-77
2021/05/03 10:55:46;;;;;;;9.45;5.63;;;14.30;50.40;;;12.75;47.80;100822.00;5009349;28;20409;-77
2021/05/03 10:58:23;;;;;;;11.00;5.20;;;14.30;51.70;;;12.82;47.69;100821.03;4995501;28;20249;-77
2021/05/03 11:01:16;;;;;;;9.27;5.40;;;14.40;52.40;;;12.81;45.43;100819.38;5009449;28;20045;-78
2021/05/03 11:04:16;;;;;;;9.45;4.93;;;14.40;50.50;;;12.80;46.40;100806.72;5008899;28;20458;-78
2021/05/03 11:07:14;;;;;;;8.93;4.90;;;14.40;50.60;;;12.78;46.46;100803.34;5008762;28;20049;-77
2021/05/03 11:09:53;;;;;;;7.25;4.90;;;14.40;50.70;;;12.89;45.36;100802.84;5008959;28;20127;-76
2021/05/03 11:12:49;;;;;;;10.10;5.15;;;14.50;49.70;;;12.91;42.53;100795.31;5004873;28;20046;-76
2021/05/03 11:15:30;;;;;;;10.20;4.82;;;14.50;47.20;;;12.90;45.59;100799.06;4992797;28;20780;-77
2021/05/03 11:18:30;;;;;;;8.57;5.20;;;14.50;49.50;;;12.86;43.45;100797.75;4987367;28;20057;-76
2021/05/03 11:21:16;;;;;;;9.75;4.60;;;14.50;47.70;;;12.88;44.75;100794.84;5007291;28;20080;-76